createdAt,value
2023-02-02T00:00:21.200Z,101367.56
2023-02-02T00:05:22.999Z,101375.44
2023-02-02T00:10:24.715Z,101382.47
2023-02-02T00:15:26.386Z,101374.69
2023-02-02T00:20:28.321Z,101367.00
2023-02-02T00:25:30.063Z,101366.69
2023-02-02T00:30:31.760Z,101374.06
2023-02-02T00:35:33.319Z,101369.47
2023-02-02T00:40:35.313Z,101379.63
2023-02-02T00:45:37.919Z,101383.81
2023-02-02T00:50:39.554Z,101384.66
2023-02-02T00:55:41.063Z,101378.06
2023-02-02T01:00:42.977Z,101398.81
2023-02-02T01:05:44.588Z,101407.56
2023-02-02T01:10:46.078Z,101409.75
2023-02-02T01:15:47.922Z,101417.16
2023-02-02T01:21:04.330Z,101417.00
2023-02-02T01:26:08.433Z,101419.75
2023-02-02T01:31:13.321Z,101421.06
2023-02-02T01:36:18.082Z,101414.09
2023-02-02T01:41:22.973Z,101423.31
2023-02-02T01:46:25.957Z,101445.53
2023-02-02T01:51:35.084Z,101438.22
2023-02-02T01:56:44.079Z,101447.06
2023-02-02T02:01:48.372Z,101442.97
2023-02-02T02:06:53.940Z,101453.91
2023-02-02T02:11:55.808Z,101451.97
2023-02-02T02:17:08.768Z,101461.16
2023-02-02T02:22:39.701Z,101480.13
2023-02-02T02:34:28.592Z,101470.47
2023-02-02T02:40:25.355Z,101479.78
2023-02-02T02:51:47.896Z,101501.09
2023-02-02T02:57:13.437Z,101492.97
2023-02-02T03:09:10.291Z,101492.25
2023-02-02T03:26:40.186Z,101519.81
2023-02-02T03:32:57.304Z,101516.44
2023-02-02T03:38:29.030Z,101516.59
2023-02-02T03:44:03.958Z,101526.16
2023-02-02T04:01:14.178Z,101548.59
2023-02-02T04:12:34.019Z,101564.25
2023-02-02T04:23:33.514Z,101563.88
2023-02-02T04:28:59.949Z,101571.63
2023-02-02T04:34:22.995Z,101580.13
2023-02-02T04:44:55.539Z,101581.19
2023-02-02T04:50:08.352Z,101570.66
2023-02-02T04:55:18.735Z,101577.44
2023-02-02T05:00:29.143Z,101581.78
2023-02-02T05:05:47.596Z,101588.47
2023-02-02T05:11:14.587Z,101586.41
2023-02-02T05:16:19.998Z,101595.69
2023-02-02T05:21:28.463Z,101595.56
2023-02-02T05:32:06.274Z,101600.22
2023-02-02T05:37:20.640Z,101599.13
2023-02-02T05:42:51.490Z,101599.84
2023-02-02T05:48:09.779Z,101595.47
2023-02-02T05:53:17.799Z,101601.72
2023-02-02T05:58:28.295Z,101604.41
2023-02-02T06:03:39.541Z,101602.00
2023-02-02T06:08:49.858Z,101613.56
2023-02-02T06:14:01.948Z,101614.53
2023-02-02T06:19:09.915Z,101621.31
2023-02-02T06:24:12.474Z,101618.72
2023-02-02T06:29:22.101Z,101637.91
2023-02-02T06:34:27.491Z,101635.31
2023-02-02T06:39:42.754Z,101639.69
2023-02-02T06:44:51.015Z,101649.31
2023-02-02T06:49:53.607Z,101655.50
2023-02-02T06:55:14.667Z,101660.56
2023-02-02T07:00:20.747Z,101669.31
2023-02-02T07:05:32.872Z,101665.03
2023-02-02T07:11:13.741Z,101666.72
2023-02-02T07:16:03.102Z,101685.03
2023-02-02T07:21:05.770Z,101688.63
2023-02-02T07:26:13.741Z,101691.13
2023-02-02T07:31:26.849Z,101683.44
2023-02-02T07:36:31.279Z,101697.66
2023-02-02T07:41:39.145Z,101708.47
2023-02-02T07:46:50.065Z,101713.84
2023-02-02T07:51:55.177Z,101724.75
2023-02-02T07:57:02.496Z,101734.69
2023-02-02T08:02:09.566Z,101736.88
2023-02-02T08:07:16.147Z,101743.13
2023-02-02T08:12:19.336Z,101744.25
2023-02-02T08:17:23.021Z,101750.38
2023-02-02T08:22:25.472Z,101744.81
2023-02-02T08:27:27.700Z,101760.09
2023-02-02T08:32:35.238Z,101768.16
2023-02-02T08:37:37.486Z,101784.25
2023-02-02T08:42:39.437Z,101795.44
2023-02-02T08:47:44.817Z,101801.09
2023-02-02T08:52:46.972Z,101798.25
2023-02-02T08:57:51.467Z,101807.22
2023-02-02T09:02:56.833Z,101812.09
2023-02-02T09:07:59.272Z,101821.00
2023-02-02T09:13:03.179Z,101831.03
2023-02-02T09:18:05.180Z,101833.38
2023-02-02T09:23:07.240Z,101826.84
2023-02-02T09:28:08.891Z,101845.53
2023-02-02T09:33:10.697Z,101845.72
2023-02-02T09:38:12.353Z,101853.25
2023-02-02T09:43:59.158Z,101866.22
2023-02-02T09:49:06.330Z,101869.25
2023-02-02T09:54:26.769Z,101873.13
2023-02-02T09:59:35.617Z,101883.31
2023-02-02T10:04:40.460Z,101885.34
2023-02-02T10:09:47.007Z,101893.69
2023-02-02T10:15:23.054Z,101884.78
2023-02-02T10:20:33.825Z,101908.59
2023-02-02T10:25:35.416Z,101897.38
2023-02-02T10:30:54.147Z,101906.63
2023-02-02T10:36:05.803Z,101914.06
2023-02-02T10:41:28.659Z,101918.84
2023-02-02T10:47:08.030Z,101929.31
2023-02-02T10:52:24.172Z,101939.63
2023-02-02T10:58:07.307Z,101945.00
2023-02-02T11:03:11.973Z,101945.22
2023-02-02T11:08:20.964Z,101948.25
2023-02-02T11:13:33.943Z,101947.38
2023-02-02T11:18:35.713Z,101949.06
2023-02-02T11:23:39.208Z,101947.28
2023-02-02T11:28:40.906Z,101952.22
2023-02-02T11:33:42.824Z,101957.59
2023-02-02T11:39:04.897Z,101948.91
2023-02-02T11:44:12.178Z,101967.94
2023-02-02T11:49:19.015Z,101947.06
2023-02-02T11:54:33.266Z,101958.03
2023-02-02T11:59:37.934Z,101944.84
2023-02-02T12:04:40.378Z,101953.78
2023-02-02T12:09:41.935Z,101954.09
2023-02-02T12:15:12.176Z,101950.94
2023-02-02T12:20:38.308Z,101950.66
2023-02-02T12:26:06.157Z,101949.94
2023-02-02T12:31:44.086Z,101960.59
2023-02-02T12:36:51.805Z,101953.25
2023-02-02T12:42:15.321Z,101959.09
2023-02-02T12:47:36.158Z,101948.91
2023-02-02T12:52:46.534Z,101938.78
2023-02-02T12:57:56.797Z,101958.75
2023-02-02T13:03:17.926Z,101941.13
2023-02-02T13:08:32.040Z,101940.72
2023-02-02T13:13:38.422Z,101928.84
2023-02-02T13:19:05.847Z,101921.94
2023-02-02T13:24:35.579Z,101933.91
2023-02-02T13:30:08.926Z,101938.63
2023-02-02T13:35:35.670Z,101946.41
2023-02-02T13:40:53.951Z,101956.00
2023-02-02T13:46:45.613Z,101961.22
2023-02-02T13:52:25.357Z,101945.75
2023-02-02T13:58:02.909Z,101955.13
2023-02-02T14:08:46.814Z,101957.66
2023-02-02T14:14:20.272Z,101961.06
2023-02-02T14:19:51.283Z,101960.75
2023-02-02T14:24:55.567Z,101962.34
2023-02-02T14:29:58.487Z,101960.06
2023-02-02T14:35:09.134Z,101964.78
2023-02-02T14:40:26.957Z,101958.66
2023-02-02T14:45:28.635Z,101971.28
2023-02-02T14:50:39.536Z,101972.59
2023-02-02T14:56:01.350Z,101977.78
2023-02-02T15:01:27.815Z,101983.38
2023-02-02T15:06:37.640Z,101988.34
2023-02-02T15:12:01.638Z,101994.00
2023-02-02T15:17:20.930Z,101998.75
2023-02-02T15:22:40.296Z,102009.78
2023-02-02T15:27:56.216Z,102016.53
2023-02-02T15:33:02.090Z,102016.81
2023-02-02T15:38:12.875Z,102033.03
2023-02-02T15:43:15.448Z,102026.53
2023-02-02T15:48:31.552Z,102039.22
2023-02-02T15:53:42.106Z,102031.34
2023-02-02T15:58:48.136Z,102047.66
2023-02-02T16:04:01.825Z,102054.94
2023-02-02T16:09:05.657Z,102062.91
2023-02-02T16:14:14.113Z,102059.03
2023-02-02T16:19:25.645Z,102060.03
2023-02-02T16:24:44.136Z,102063.94
2023-02-02T16:29:46.399Z,102061.59
2023-02-02T16:34:49.127Z,102061.59
2023-02-02T16:39:55.064Z,102059.47
2023-02-02T16:45:01.144Z,102065.78
2023-02-02T16:50:10.254Z,102052.75
2023-02-02T16:55:50.426Z,102053.44
2023-02-02T17:06:52.751Z,102053.81
2023-02-02T17:12:34.222Z,102046.81
2023-02-02T17:17:36.371Z,102043.47
2023-02-02T17:22:41.258Z,102043.47
2023-02-02T17:27:43.234Z,102035.69
2023-02-02T17:32:44.901Z,102053.84
2023-02-02T17:37:47.178Z,102055.34
2023-02-02T17:42:52.138Z,102051.94
2023-02-02T17:47:53.742Z,102045.88
2023-02-02T17:52:55.768Z,102033.50
2023-02-02T17:57:57.935Z,102022.94
2023-02-02T18:03:20.871Z,102022.75
2023-02-02T18:08:23.000Z,102032.75
2023-02-02T18:13:24.595Z,102018.78
2023-02-02T18:18:27.316Z,102008.22
2023-02-02T18:23:29.208Z,102010.81
2023-02-02T18:28:30.792Z,102004.84
2023-02-02T18:33:32.414Z,101996.25
2023-02-02T18:38:33.952Z,101989.28
2023-02-02T18:43:35.841Z,101992.84
2023-02-02T18:48:37.751Z,101981.59
2023-02-02T18:53:39.338Z,101977.47
2023-02-02T18:58:41.285Z,101973.22
2023-02-02T19:03:47.137Z,101965.53
2023-02-02T19:08:48.821Z,101963.91
2023-02-02T19:13:50.521Z,101951.41
2023-02-02T19:18:59.342Z,101941.03
2023-02-02T19:24:04.806Z,101937.66
2023-02-02T19:29:22.879Z,101948.22
2023-02-02T19:34:36.462Z,101932.13
2023-02-02T19:39:49.287Z,101932.50
2023-02-02T19:44:51.240Z,101928.47
2023-02-02T19:49:53.150Z,101921.88
2023-02-02T19:54:54.786Z,101917.22
2023-02-02T19:59:56.349Z,101912.13
2023-02-02T20:05:15.506Z,101905.50
2023-02-02T20:10:23.403Z,101907.81
2023-02-02T20:15:33.218Z,101903.91
2023-02-02T20:20:40.513Z,101893.03
2023-02-02T20:25:44.263Z,101878.00
2023-02-02T20:30:45.868Z,101875.19
2023-02-02T20:35:47.772Z,101880.19
2023-02-02T20:40:49.942Z,101873.72
2023-02-02T20:45:52.296Z,101875.94
2023-02-02T20:50:54.112Z,101871.31
2023-02-02T20:55:58.212Z,101876.22
2023-02-02T21:01:05.200Z,101874.28
2023-02-02T21:06:06.936Z,101871.56
2023-02-02T21:11:08.634Z,101874.56
2023-02-02T21:16:10.270Z,101875.91
2023-02-02T21:21:14.105Z,101881.38
2023-02-02T21:31:30.314Z,101867.13
2023-02-02T21:36:43.303Z,101858.53
2023-02-02T21:41:48.481Z,101844.75
2023-02-02T22:05:07.289Z,101810.44
2023-02-02T22:16:21.755Z,101818.31
2023-02-02T22:21:37.240Z,101821.91
2023-02-02T22:27:03.475Z,101814.34
2023-02-02T22:32:40.697Z,101804.97
2023-02-02T22:37:57.920Z,101793.75
2023-02-02T22:49:24.252Z,101761.88
2023-02-02T22:54:18.508Z,101759.25
2023-02-02T22:59:46.485Z,101755.16
2023-02-02T23:05:11.136Z,101756.25
2023-02-02T23:15:53.497Z,101754.06
2023-02-02T23:21:41.592Z,101750.84
2023-02-02T23:27:44.259Z,101750.91
2023-02-02T23:33:09.000Z,101752.63
2023-02-02T23:38:36.564Z,101753.56
2023-02-02T23:43:53.312Z,101748.50
2023-02-02T23:49:13.616Z,101760.66
2023-02-02T23:55:10.874Z,101757.31
